Time;durP1;ratioP1;P1;durP2;ratioP2;P2;SDS_P1;SDS_P2;PMS_P1;PMS_P2;Temp;Humidity;BMP_temperature;BMP_pressure;BME280_temperature;BME280_humidity;BME280_pressure;Samples;Min_cycle;Max_cycle;Signal;HPM_P1;HPM_P2
2022/01/30 00:01:22;;;;;;;41.13;5.00;;;;;;;6.03;76.66;102655.03;5026610;28;20028;-65
2022/01/30 00:03:47;;;;;;;36.23;4.97;;;;;;;6.04;76.52;102655.88;5026958;28;20075;-65
2022/01/30 00:06:13;;;;;;;29.93;4.87;;;;;;;6.01;76.69;102649.00;5028487;28;20413;-65
2022/01/30 00:08:38;;;;;;;31.53;5.03;;;;;;;6.00;76.38;102657.88;5028181;28;20041;-65
2022/01/30 00:11:12;;;;;;;29.80;4.90;;;;;;;5.97;76.39;102651.94;5028584;28;20060;-65
2022/01/30 00:13:37;;;;;;;32.27;4.53;;;;;;;5.94;76.69;102653.00;5026573;28;20025;-65
2022/01/30 00:16:06;;;;;;;34.40;5.33;;;;;;;5.90;76.67;102652.34;5027493;28;20048;-65
2022/01/30 00:18:49;;;;;;;33.38;5.07;;;;;;;5.82;76.66;102651.94;5042905;28;20100;-65
2022/01/30 00:23:53;;;;;;;42.07;5.50;;;;;;;5.69;77.23;102653.63;5028278;28;20037;-66
2022/01/30 00:26:19;;;;;;;31.33;4.90;;;;;;;5.62;77.10;102673.41;5028275;28;20025;-66
2022/01/30 00:28:45;;;;;;;32.23;4.90;;;;;;;5.63;77.47;102677.72;5026962;28;20031;-66
2022/01/30 00:31:13;;;;;;;40.50;5.30;;;;;;;5.62;77.61;102685.72;5027351;28;20018;-65
2022/01/30 00:33:38;;;;;;;33.43;5.10;;;;;;;5.57;77.44;102686.84;5026923;28;20029;-66
2022/01/30 00:36:04;;;;;;;35.23;5.70;;;;;;;5.58;77.50;102677.16;5028498;28;20033;-65
2022/01/30 00:38:29;;;;;;;39.13;5.60;;;;;;;5.55;77.65;102672.09;5024413;28;20048;-65
2022/01/30 00:40:55;;;;;;;37.67;4.97;;;;;;;5.56;77.79;102673.78;5027248;28;20113;-65
2022/01/30 00:43:20;;;;;;;42.00;5.40;;;;;;;5.55;77.88;102677.34;5028577;28;20021;-65
2022/01/30 00:45:47;;;;;;;34.73;4.97;;;;;;;5.59;78.02;102674.44;5027000;28;20377;-65
2022/01/30 00:48:12;;;;;;;30.70;4.30;;;;;;;5.59;77.98;102673.59;5028225;28;20044;-65
2022/01/30 00:50:39;;;;;;;40.83;5.90;;;;;;;5.59;78.33;102678.84;5024311;28;20025;-65
2022/01/30 00:53:04;;;;;;;39.20;5.30;;;;;;;5.56;77.94;102671.13;5028296;28;20022;-65
2022/01/30 00:55:31;;;;;;;35.87;5.07;;;;;;;5.50;78.22;102682.91;5027498;28;20021;-65
2022/01/30 00:57:57;;;;;;;35.43;5.13;;;;;;;5.54;78.44;102691.47;5024563;28;20038;-65
2022/01/30 01:00:24;;;;;;;30.97;4.87;;;;;;;5.51;78.55;102681.13;5025946;28;20026;-65
2022/01/30 01:02:49;;;;;;;32.97;4.93;;;;;;;5.43;78.48;102683.34;5027763;28;20038;-65
2022/01/30 01:05:15;;;;;;;41.70;5.50;;;;;;;5.42;78.46;102692.19;5027341;28;20025;-65
2022/01/30 01:07:44;;;;;;;39.37;5.57;;;;;;;5.38;78.93;102690.69;5027545;28;20044;-65
2022/01/30 01:23:32;;;;;;;33.67;5.00;;;;;;;5.08;78.98;102685.44;5023198;28;20041;-65
2022/01/30 01:25:59;;;;;;;30.77;4.87;;;;;;;5.04;79.06;102695.31;5025832;28;20029;-65
2022/01/30 01:28:25;;;;;;;27.07;4.60;;;;;;;4.92;79.15;102688.97;5024569;28;20041;-65
2022/01/30 01:30:51;;;;;;;37.67;4.67;;;;;;;5.02;79.15;102709.50;5026814;28;20224;-65
2022/01/30 01:33:17;;;;;;;35.97;5.00;;;;;;;4.94;79.29;102702.91;5027255;28;20374;-65
2022/01/30 01:35:43;;;;;;;37.67;5.53;;;;;;;4.90;79.13;102706.63;5026850;28;20021;-65
2022/01/30 01:38:13;;;;;;;35.33;4.60;;;;;;;4.86;79.31;102701.63;5026345;28;20018;-65
2022/01/30 01:40:40;;;;;;;35.43;4.57;;;;;;;4.85;79.40;102705.19;5023482;28;20503;-65
2022/01/30 01:43:06;;;;;;;37.00;4.93;;;;;;;4.85;79.58;102692.03;5027373;28;20017;-65
2022/01/30 01:45:36;;;;;;;30.77;4.67;;;;;;;4.89;79.33;102701.44;5027078;28;20028;-65
2022/01/30 01:48:08;;;;;;;34.63;5.00;;;;;;;4.97;79.39;102707.13;5026370;28;20444;-65
2022/01/30 01:50:39;;;;;;;34.37;6.10;;;;;;;5.03;78.96;102719.94;5024767;28;20056;-65
2022/01/30 01:53:10;;;;;;;32.67;4.70;;;;;;;5.08;78.96;102717.88;5026558;28;20133;-65
2022/01/30 01:55:36;;;;;;;37.27;5.63;;;;;;;5.13;78.62;102715.81;5024202;28;20026;-65
2022/01/30 01:58:03;;;;;;;32.13;4.93;;;;;;;5.14;78.79;102720.16;5026113;28;20589;-65
2022/01/30 02:00:28;;;;;;;40.80;5.23;;;;;;;5.19;78.66;102712.81;5024785;28;20021;-64
2022/01/30 02:02:54;;;;;;;34.67;5.07;;;;;;;5.19;78.51;102707.56;5026651;28;20578;-65
2022/01/30 02:05:22;;;;;;;38.47;5.40;;;;;;;5.17;78.71;102711.22;5026693;28;20497;-65
2022/01/30 02:13:42;;;;;;;34.67;4.60;;;;;;;5.15;78.79;102698.16;5010032;28;20163;-65
2022/01/30 02:26:57;;;;;;;30.23;4.53;;;;;;;4.92;79.10;102709.19;5026028;28;20033;-65
2022/01/30 02:29:23;;;;;;;36.47;5.30;;;;;;;4.87;79.09;102706.78;5023719;28;20029;-65
2022/01/30 02:31:48;;;;;;;39.97;5.00;;;;;;;4.82;79.33;102714.09;5022527;28;20032;-65
2022/01/30 02:34:14;;;;;;;32.60;4.50;;;;;;;4.76;79.42;102709.19;5026113;28;20489;-65
2022/01/30 02:36:51;;;;;;;29.10;4.50;;;;;;;4.72;79.48;102712.94;5026008;28;20037;-64
2022/01/30 02:39:18;;;;;;;37.17;5.60;;;;;;;4.64;79.67;102708.13;5023540;28;20033;-65
2022/01/30 02:41:43;;;;;;;35.73;4.73;;;;;;;4.60;79.95;102703.09;5026572;28;20116;-65
2022/01/30 02:46:44;;;;;;;31.53;4.47;;;;;;;4.54;80.00;102700.81;5022978;28;20124;-65
2022/01/30 02:52:05;;;;;;;25.97;4.20;;;;;;;4.47;80.49;102687.16;5024241;28;20041;-65
2022/01/30 02:55:07;;;;;;;32.27;4.93;;;;;;;4.43;80.53;102688.25;5026688;28;20049;-65
2022/01/30 02:57:52;;;;;;;31.87;5.50;;;;;;;4.37;80.48;102701.75;5018993;28;20126;-65
2022/01/30 03:00:18;;;;;;;34.40;5.00;;;;;;;4.33;80.66;102705.47;5024528;28;20053;-64
2022/01/30 03:02:43;;;;;;;30.00;4.67;;;;;;;4.22;81.00;102703.44;5026060;28;20034;-65
2022/01/30 03:05:09;;;;;;;30.57;5.33;;;;;;;4.15;80.99;102711.75;5025763;28;20036;-65
2022/01/30 03:07:35;;;;;;;33.97;4.87;;;;;;;4.10;81.52;102714.63;5026676;28;20029;-65
2022/01/30 03:10:00;;;;;;;32.73;4.37;;;;;;;4.11;81.66;102720.75;5028868;28;20127;-65
2022/01/30 03:12:25;;;;;;;34.37;4.70;;;;;;;4.14;81.81;102725.81;5029592;28;20029;-65
2022/01/30 03:14:50;;;;;;;33.37;4.53;;;;;;;4.13;81.65;102726.75;5029912;28;20036;-65
2022/01/30 03:17:16;;;;;;;31.10;4.80;;;;;;;4.07;81.73;102724.47;5030114;28;20032;-65
2022/01/30 03:19:41;;;;;;;36.63;4.40;;;;;;;4.07;81.78;102733.19;5027967;28;20029;-65
2022/01/30 03:22:07;;;;;;;34.97;5.27;;;;;;;4.12;82.13;102738.22;5030085;28;20108;-65
2022/01/30 03:24:36;;;;;;;35.57;4.87;;;;;;;4.18;82.19;102737.88;5030235;28;20034;-65
2022/01/30 03:27:06;;;;;;;33.78;4.53;;;;;;;4.27;82.15;102740.84;5030166;28;20100;-65
2022/01/30 03:29:32;;;;;;;;;;;;;;;4.40;82.04;102754.19;5029184;28;20599;-64
2022/01/30 03:31:58;;;;;;;23.90;3.70;;;;;;;4.51;82.10;102754.44;5029328;28;19941;-65
2022/01/30 03:34:23;;;;;;;29.30;4.10;;;;;;;4.71;81.66;102756.00;5029921;28;20037;-65
2022/01/30 03:36:49;;;;;;;30.53;4.37;;;;;;;4.84;81.33;102759.63;5029748;28;20033;-65
2022/01/30 03:39:14;;;;;;;36.83;5.13;;;;;;;4.93;80.68;102771.44;5028635;28;20041;-65
2022/01/30 03:41:39;;;;;;;34.80;4.30;;;;;;;4.94;80.43;102768.72;5029896;28;20025;-65
2022/01/30 03:44:05;;;;;;;29.37;3.87;;;;;;;4.96;80.14;102781.78;5029415;28;20022;-65
2022/01/30 03:46:30;;;;;;;24.33;4.30;;;;;;;4.98;79.99;102778.13;5029163;28;20111;-65
2022/01/30 03:48:55;;;;;;;24.67;3.80;;;;;;;5.02;79.93;102788.47;5027024;28;20402;-65
2022/01/30 03:51:20;;;;;;;28.10;4.03;;;;;;;5.02;79.60;102789.34;5028493;28;20033;-65
2022/01/30 03:53:46;;;;;;;29.03;3.80;;;;;;;5.04;79.38;102792.72;5029692;28;20025;-65
2022/01/30 03:56:11;;;;;;;29.07;3.70;;;;;;;5.04;78.92;102807.69;5028671;28;20033;-65
2022/01/30 03:58:37;;;;;;;24.27;4.27;;;;;;;5.02;78.55;102799.88;5028296;28;20036;-64
2022/01/30 04:01:03;;;;;;;29.00;3.53;;;;;;;5.02;78.19;102801.66;5026962;28;20037;-65
2022/01/30 04:03:28;;;;;;;22.67;3.40;;;;;;;5.02;77.85;102805.13;5030148;28;20108;-65
2022/01/30 04:05:53;;;;;;;22.73;3.10;;;;;;;5.01;78.19;102806.06;5029228;28;20116;-65
2022/01/30 04:08:19;;;;;;;28.57;3.70;;;;;;;4.96;77.83;102797.59;5029641;28;20389;-65
2022/01/30 04:10:45;;;;;;;24.93;3.70;;;;;;;5.01;77.51;102806.06;5028590;28;20493;-65
2022/01/30 04:13:10;;;;;;;17.17;2.83;;;;;;;5.06;77.62;102811.06;5029619;28;20021;-65
2022/01/30 04:15:36;;;;;;;20.93;3.07;;;;;;;5.03;77.57;102803.34;5028649;28;20493;-65
2022/01/30 04:18:02;;;;;;;26.43;3.07;;;;;;;5.07;77.26;102812.78;5026361;28;20036;-64
2022/01/30 04:20:28;;;;;;;19.53;2.37;;;;;;;5.08;76.87;102815.31;5026490;28;20025;-65
2022/01/30 04:22:53;;;;;;;14.90;2.70;;;;;;;5.08;77.13;102820.56;5028862;28;20121;-65
2022/01/30 04:25:19;;;;;;;17.23;3.17;;;;;;;5.08;76.83;102815.31;5028093;28;20021;-65
2022/01/30 04:27:44;;;;;;;21.63;2.90;;;;;;;5.08;77.07;102820.56;5028905;28;20052;-64
2022/01/30 04:30:11;;;;;;;18.80;2.90;;;;;;;5.09;76.52;102813.53;5027220;28;20036;-65
2022/01/30 04:32:41;;;;;;;20.10;3.00;;;;;;;5.12;77.07;102816.84;5026719;28;20071;-65
2022/01/30 04:35:16;;;;;;;23.03;3.40;;;;;;;5.14;77.17;102819.38;5027763;28;20326;-64
2022/01/30 04:58:54;;;;;;;20.20;2.87;;;;;;;5.00;75.58;102828.06;5027174;28;20087;-65
2022/01/30 05:02:07;;;;;;;18.25;2.80;;;;;;;4.97;75.18;102828.25;5027183;28;20288;-65
2022/01/30 05:04:25;;;;;;;19.60;2.50;;;;;;;4.91;75.41;102834.66;5026109;28;20146;-65
2022/01/30 05:07:26;;;;;;;17.83;2.57;;;;;;;4.86;75.38;102841.13;5027287;28;20032;-65
2022/01/30 05:09:40;;;;;;;22.70;2.80;;;;;;;4.82;75.47;102850.13;5026945;28;20043;-65
2022/01/30 05:12:06;;;;;;;20.23;3.17;;;;;;;4.75;75.74;102856.66;5027343;28;20023;-65
2022/01/30 05:14:36;;;;;;;19.47;2.90;;;;;;;4.66;75.98;102865.94;5028237;28;20017;-65
2022/01/30 05:17:03;;;;;;;23.83;3.20;;;;;;;4.59;76.30;102861.91;5026997;28;20034;-65
2022/01/30 05:19:29;;;;;;;21.43;3.00;;;;;;;4.47;76.46;102852.88;5025060;28;20032;-64
2022/01/30 05:21:55;;;;;;;22.57;3.70;;;;;;;4.42;76.40;102864.59;5027207;28;20022;-65
2022/01/30 05:24:21;;;;;;;14.73;2.83;;;;;;;4.32;76.84;102861.56;5026367;28;20553;-65
2022/01/30 05:26:46;;;;;;;18.43;2.97;;;;;;;4.26;76.96;102857.50;5027459;28;20108;-65
2022/01/30 05:29:13;;;;;;;19.87;2.57;;;;;;;4.21;77.17;102859.53;5025521;28;20025;-65
2022/01/30 05:31:38;;;;;;;18.93;2.70;;;;;;;4.13;77.59;102860.84;5025514;28;20025;-65
2022/01/30 05:34:04;;;;;;;15.80;2.70;;;;;;;4.09;77.54;102865.44;5027330;28;20026;-65
2022/01/30 05:36:30;;;;;;;19.50;2.80;;;;;;;4.04;77.56;102870.88;5025185;28;20473;-65
2022/01/30 05:38:57;;;;;;;16.73;2.70;;;;;;;4.00;77.76;102871.13;5026986;28;20025;-65
2022/01/30 05:41:23;;;;;;;13.77;2.40;;;;;;;3.92;77.75;102866.28;5026822;28;20017;-65
2022/01/30 05:43:52;;;;;;;15.07;2.53;;;;;;;3.84;77.81;102865.81;5027430;28;20405;-65
2022/01/30 05:46:29;;;;;;;21.30;3.33;;;;;;;3.77;77.95;102874.94;5027627;28;20029;-65
2022/01/30 05:48:55;;;;;;;20.00;3.30;;;;;;;3.73;78.03;102873.38;5024919;28;20064;-65
2022/01/30 05:51:20;;;;;;;20.20;2.70;;;;;;;3.68;78.15;102870.97;5026021;28;20737;-65
2022/01/30 05:53:45;;;;;;;18.27;2.93;;;;;;;3.70;78.32;102870.91;5019900;28;20017;-65
2022/01/30 05:56:12;;;;;;;18.93;3.10;;;;;;;3.71;78.36;102872.59;5027572;28;20032;-65
2022/01/30 05:58:38;;;;;;;18.00;2.70;;;;;;;3.73;78.31;102874.22;5025932;28;20112;-65
2022/01/30 06:01:04;;;;;;;19.13;2.83;;;;;;;3.75;78.26;102874.13;5026722;28;20033;-65
2022/01/30 06:03:29;;;;;;;18.13;2.73;;;;;;;3.78;78.21;102884.53;5025535;28;20033;-64
2022/01/30 06:05:55;;;;;;;19.73;3.10;;;;;;;3.80;78.34;102884.44;5026769;28;20017;-65
2022/01/30 06:08:59;;;;;;;18.90;2.80;;;;;;;3.79;78.07;102883.59;5026531;28;20068;-65
2022/01/30 06:11:13;;;;;;;16.63;2.70;;;;;;;3.83;77.99;102894.81;5025669;28;20036;-65
2022/01/30 06:13:39;;;;;;;21.77;2.70;;;;;;;3.84;77.91;102897.34;5026217;28;20025;-65
2022/01/30 06:16:05;;;;;;;21.60;3.13;;;;;;;3.88;77.97;102900.69;5027298;28;20044;-65
2022/01/30 06:18:31;;;;;;;23.10;3.20;;;;;;;3.91;78.05;102893.47;5026337;28;20044;-65
2022/01/30 06:20:56;;;;;;;25.90;2.97;;;;;;;3.93;78.15;102891.63;5026636;28;20500;-65
2022/01/30 06:23:25;;;;;;;22.13;2.63;;;;;;;3.97;78.37;102890.53;5026130;28;20366;-65
2022/01/30 06:25:51;;;;;;;20.98;2.97;;;;;;;3.99;78.07;102893.09;5026997;28;20025;-65
2022/01/30 06:28:16;;;;;;;16.03;2.50;;;;;;;4.05;78.13;102882.28;5026276;28;20036;-65
2022/01/30 06:30:42;;;;;;;24.80;3.17;;;;;;;4.13;78.13;102882.75;5026022;28;20033;-65
2022/01/30 06:33:07;;;;;;;24.33;4.47;;;;;;;4.17;78.25;102888.69;5026078;28;20033;-65
2022/01/30 06:35:32;;;;;;;22.37;3.23;;;;;;;4.19;78.06;102886.81;5027170;28;20048;-65
2022/01/30 06:37:57;;;;;;;26.57;3.23;;;;;;;4.22;77.95;102887.50;5026287;28;20162;-65
2022/01/30 06:40:23;;;;;;;21.93;3.10;;;;;;;4.19;77.87;102889.44;5023949;28;20034;-65
2022/01/30 06:42:49;;;;;;;25.07;3.13;;;;;;;4.15;78.03;102890.53;5025937;28;20099;-65
2022/01/30 06:45:18;;;;;;;25.23;3.67;;;;;;;4.03;77.94;102892.84;5030607;28;20037;-65
2022/01/30 06:47:44;;;;;;;15.40;2.65;;;;;;;3.89;77.87;102905.84;5027640;28;20036;-65
2022/01/30 06:50:09;;;;;;;17.57;3.13;;;;;;;3.76;78.00;102902.16;5028672;28;20253;-65
2022/01/30 06:52:36;;;;;;;28.70;3.23;;;;;;;3.69;78.25;102913.84;5026304;28;20063;-65
2022/01/30 06:55:01;;;;;;;20.07;2.83;;;;;;;3.58;78.47;102913.53;5029327;28;20022;-65
2022/01/30 06:57:27;;;;;;;26.43;2.70;;;;;;;3.53;78.80;102926.06;5030190;28;20074;-65
2022/01/30 06:59:52;;;;;;;27.87;3.33;;;;;;;3.53;79.07;102924.28;5029890;28;20033;-65
2022/01/30 07:02:18;;;;;;;24.60;3.10;;;;;;;3.54;78.92;102927.75;5023637;28;20033;-65
2022/01/30 07:04:43;;;;;;;21.07;3.17;;;;;;;3.57;79.10;102930.22;5026043;28;20060;-65
2022/01/30 07:07:09;;;;;;;22.70;3.37;;;;;;;3.62;79.03;102925.59;5030094;28;20025;-64
2022/01/30 07:09:34;;;;;;;20.73;3.27;;;;;;;3.66;79.31;102932.41;5030491;28;20033;-65
2022/01/30 07:12:00;;;;;;;19.87;3.57;;;;;;;3.69;79.47;102938.34;5031107;28;20031;-65
2022/01/30 07:14:26;;;;;;;23.07;3.17;;;;;;;3.73;79.44;102936.44;5028303;28;20025;-64
2022/01/30 07:16:51;;;;;;;23.60;3.27;;;;;;;3.72;79.24;102940.84;5027813;28;20021;-65
2022/01/30 07:19:16;;;;;;;19.70;3.43;;;;;;;3.70;79.32;102939.22;5029623;28;20257;-65
2022/01/30 07:21:42;;;;;;;28.30;4.40;;;;;;;3.65;79.16;102944.69;5029614;28;20116;-64
2022/01/30 07:24:07;;;;;;;24.17;3.23;;;;;;;3.60;79.26;102940.59;5030415;28;20017;-65
2022/01/30 07:26:33;;;;;;;26.37;3.60;;;;;;;3.59;79.65;102944.16;5030793;28;20036;-65
2022/01/30 07:28:59;;;;;;;26.00;3.77;;;;;;;3.56;79.69;102947.78;5030099;28;20021;-64
2022/01/30 07:31:25;;;;;;;25.53;3.57;;;;;;;3.61;79.77;102947.53;5029802;28;20499;-65
2022/01/30 07:33:50;;;;;;;29.60;3.73;;;;;;;3.66;79.60;102948.16;5031126;28;20010;-65
2022/01/30 07:36:15;;;;;;;27.87;3.43;;;;;;;3.62;79.47;102944.00;5025188;28;20040;-65
2022/01/30 07:38:41;;;;;;;23.07;3.80;;;;;;;3.65;79.47;102959.59;5029696;28;20448;-64
2022/01/30 07:41:07;;;;;;;26.57;3.70;;;;;;;3.61;79.44;102969.41;5029911;28;20554;-65
2022/01/30 07:43:32;;;;;;;22.20;3.87;;;;;;;3.65;79.33;102970.13;5030834;28;20268;-60
2022/01/30 07:45:58;;;;;;;29.67;3.97;;;;;;;3.66;79.37;102972.66;5030579;28;20078;-60
2022/01/30 07:48:24;;;;;;;25.40;3.73;;;;;;;3.71;79.25;102975.06;5030060;28;20044;-60
2022/01/30 07:50:49;;;;;;;25.07;3.67;;;;;;;3.77;79.03;102987.09;5028527;28;20018;-60
2022/01/30 07:53:14;;;;;;;27.83;3.83;;;;;;;3.77;78.84;102981.84;5030726;28;20064;-59
2022/01/30 07:55:41;;;;;;;23.40;3.57;;;;;;;3.78;79.02;102981.75;5029834;28;20051;-59
2022/01/30 07:58:06;;;;;;;29.70;4.67;;;;;;;3.79;78.95;102983.47;5029108;28;20033;-60
2022/01/30 08:00:31;;;;;;;26.43;4.17;;;;;;;3.80;78.72;102974.66;5029133;28;20099;-60
2022/01/30 08:02:57;;;;;;;22.83;3.70;;;;;;;3.79;78.63;102982.59;5030640;28;20489;-60
2022/01/30 08:05:22;;;;;;;29.60;3.53;;;;;;;3.78;78.80;102979.13;5029271;28;20029;-60
2022/01/30 08:07:47;;;;;;;26.23;3.93;;;;;;;3.77;78.84;102984.47;5029934;28;20039;-60
2022/01/30 08:10:12;;;;;;;27.47;3.63;;;;;;;3.79;79.11;102982.59;5029650;28;20071;-59
2022/01/30 08:12:38;;;;;;;29.77;4.30;;;;;;;3.84;79.28;102988.47;5029675;28;20040;-59
2022/01/30 08:15:04;;;;;;;21.80;3.87;;;;;;;3.88;79.07;102993.50;5030435;28;20033;-60
2022/01/30 08:17:32;;;;;;;31.90;4.00;;;;;;;3.93;79.04;102995.91;5027380;28;20037;-59
2022/01/30 08:19:57;;;;;;;25.03;4.73;;;;;;;4.02;78.87;102991.06;5027907;28;20033;-59
2022/01/30 08:22:23;;;;;;;25.30;3.90;;;;;;;4.10;78.99;102997.72;5028176;28;20479;-60
2022/01/30 08:24:48;;;;;;;30.07;3.83;;;;;;;4.18;79.19;103001.69;5027398;28;20044;-60
2022/01/30 08:27:13;;;;;;;29.17;3.97;;;;;;;4.22;79.18;103002.38;5028192;28;20036;-59
2022/01/30 08:29:38;;;;;;;29.77;4.30;;;;;;;4.26;78.92;102996.88;5027688;28;20083;-60
2022/01/30 08:32:05;;;;;;;28.17;4.67;;;;;;;4.33;78.73;102994.78;5029750;28;20021;-60
2022/01/30 08:34:30;;;;;;;39.67;5.33;;;;;;;4.41;78.41;102997.91;5029459;28;20075;-58
2022/01/30 08:36:55;;;;;;;36.37;5.10;;;;;;;4.49;78.21;102992.25;5027702;28;20033;-60
2022/01/30 08:39:21;;;;;;;33.03;4.67;;;;;;;4.55;77.93;103005.06;5028072;28;20110;-60
2022/01/30 08:41:46;;;;;;;31.80;4.57;;;;;;;4.61;77.84;103002.13;5027102;28;20159;-59
2022/01/30 08:44:11;;;;;;;25.57;4.43;;;;;;;4.62;77.50;103002.03;5029063;28;20037;-60
2022/01/30 08:46:37;;;;;;;33.43;4.30;;;;;;;4.66;77.24;103002.78;5027237;28;20377;-56
2022/01/30 08:49:02;;;;;;;29.03;4.40;;;;;;;4.72;77.36;103006.84;5028929;28;20665;-55
2022/01/30 08:51:27;;;;;;;35.47;4.50;;;;;;;4.73;77.46;103019.09;5023116;28;20115;-55
2022/01/30 08:53:53;;;;;;;37.30;3.90;;;;;;;4.73;76.71;103019.09;5017837;28;20037;-54
2022/01/30 08:56:21;;;;;;;28.83;4.10;;;;;;;4.73;76.83;103021.72;5014775;28;20513;-60
2022/01/30 08:58:47;;;;;;;23.93;4.00;;;;;;;4.73;76.68;103016.47;5019429;28;20030;-61
2022/01/30 09:01:13;;;;;;;37.20;4.73;;;;;;;4.77;76.81;103010.09;5018037;28;20037;-60
2022/01/30 09:03:39;;;;;;;29.27;4.17;;;;;;;4.81;76.53;103017.75;5019216;28;20026;-60
2022/01/30 09:06:04;;;;;;;32.70;4.53;;;;;;;4.87;76.58;103013.94;5020888;28;20052;-60
2022/01/30 09:08:30;;;;;;;37.70;4.90;;;;;;;4.93;76.50;103021.53;5019210;28;20030;-61
2022/01/30 09:10:57;;;;;;;31.47;4.80;;;;;;;5.00;76.29;103028.19;5018176;28;21163;-60
2022/01/30 09:13:23;;;;;;;33.77;4.33;;;;;;;5.10;76.49;103023.28;5021246;28;20261;-60
2022/01/30 09:15:48;;;;;;;33.63;4.70;;;;;;;5.21;76.38;103028.84;5027870;28;20030;-60
2022/01/30 09:18:13;;;;;;;31.93;5.27;;;;;;;5.33;76.21;103029.94;5027083;28;20037;-60
2022/01/30 09:20:41;;;;;;;23.27;4.53;;;;;;;5.40;75.87;103031.31;5027594;28;20032;-60
2022/01/30 09:23:08;;;;;;;38.23;6.40;;;;;;;5.47;75.54;103037.94;5024199;28;20030;-60
2022/01/30 09:25:34;;;;;;;30.77;4.47;;;;;;;5.51;74.99;103034.22;5028420;28;20083;-60
2022/01/30 09:27:59;;;;;;;27.77;4.63;;;;;;;5.54;75.03;103040.19;5022577;28;20037;-59
2022/01/30 09:30:25;;;;;;;32.47;4.93;;;;;;;5.58;74.69;103040.88;5025323;28;20108;-60
2022/01/30 09:32:50;;;;;;;38.97;4.57;;;;;;;5.63;74.40;103044.09;5027126;28;20051;-60
2022/01/30 09:35:16;;;;;;;41.43;5.10;;;;;;;5.70;74.27;103048.06;5022605;28;20060;-60
2022/01/30 09:37:41;;;;;;;32.37;5.30;;;;;;;5.76;74.37;103044.25;5029425;28;20032;-53
2022/01/30 09:40:08;;;;;;;35.13;4.90;;;;;;;5.83;73.85;103053.53;5028750;28;20029;-59
2022/01/30 09:42:33;;;;;;;31.93;5.37;;;;;;;5.88;74.08;103059.41;5027553;28;20039;-59
2022/01/30 09:45:03;;;;;;;36.93;4.93;;;;;;;5.85;73.54;103052.50;5028615;28;20021;-58
2022/01/30 09:47:29;;;;;;;40.47;5.93;;;;;;;5.82;73.17;103065.03;5029563;28;20095;-59
2022/01/30 09:49:55;;;;;;;30.97;4.63;;;;;;;5.80;73.09;103065.13;5027413;28;20481;-59
2022/01/30 09:52:20;;;;;;;41.57;5.20;;;;;;;5.82;72.94;103065.88;5026356;28;20060;-59
2022/01/30 09:54:47;;;;;;;31.33;4.03;;;;;;;5.86;73.58;103058.63;5028076;28;20420;-59
2022/01/30 09:57:13;;;;;;;36.33;4.73;;;;;;;5.93;73.33;103057.38;5019068;28;20507;-59
2022/01/30 09:59:39;;;;;;;30.60;4.80;;;;;;;6.01;73.15;103054.31;5016594;28;20116;-58
2022/01/30 10:02:06;;;;;;;30.53;4.93;;;;;;;6.07;72.85;103061.88;5016107;28;20029;-59
2022/01/30 10:04:32;;;;;;;42.23;5.33;;;;;;;6.11;72.32;103069.56;5025503;28;20155;-58
2022/01/30 10:07:03;;;;;;;31.50;4.80;;;;;;;6.18;72.82;103073.53;5026362;28;20053;-59
2022/01/30 10:09:31;;;;;;;41.70;4.97;;;;;;;6.26;72.48;103077.50;5027050;28;20029;-59
2022/01/30 10:12:19;;;;;;;24.90;4.05;;;;;;;6.34;72.54;103084.03;5026838;28;20096;-59
2022/01/30 10:15:03;;;;;;;30.53;4.97;;;;;;;6.41;72.63;103095.97;5024842;28;20041;-59
2022/01/30 10:17:37;;;;;;;36.37;5.60;;;;;;;6.48;72.33;103092.03;5025194;28;20033;-60
2022/01/30 10:20:08;;;;;;;40.20;5.93;;;;;;;6.53;72.25;103097.91;5016236;28;20022;-59
2022/01/30 10:23:01;;;;;;;31.00;4.67;;;;;;;6.62;72.48;103088.56;5025477;28;20068;-59
2022/01/30 10:25:35;;;;;;;35.37;5.03;;;;;;;6.62;71.65;103099.13;5012366;28;20129;-59
2022/01/30 10:28:16;;;;;;;35.23;4.73;;;;;;;6.64;71.55;103093.78;5026265;28;20392;-59
2022/01/30 10:30:50;;;;;;;26.17;4.63;;;;;;;6.69;71.86;103089.09;5022738;28;20025;-59
2022/01/30 10:33:18;;;;;;;29.43;4.93;;;;;;;6.71;71.16;103097.78;5027936;28;20025;-59
2022/01/30 10:35:46;;;;;;;39.00;5.47;;;;;;;6.76;71.44;103095.72;5025246;28;20572;-60
2022/01/30 10:38:46;;;;;;;31.03;5.30;;;;;;;6.82;71.61;103085.63;5024257;28;20037;-59
2022/01/30 10:41:31;;;;;;;37.00;5.43;;;;;;;6.86;70.90;103094.22;5025675;28;20033;-59
2022/01/30 10:44:07;;;;;;;41.73;5.50;;;;;;;6.88;70.78;103089.69;5027296;28;20033;-59
2022/01/30 10:46:38;;;;;;;46.50;6.03;;;;;;;6.95;70.82;103095.47;5023174;28;20128;-59
2022/01/30 10:49:08;;;;;;;36.37;4.63;;;;;;;6.99;70.50;103095.19;5030061;28;20061;-59
2022/01/30 10:51:33;;;;;;;34.07;4.90;;;;;;;7.06;70.92;103093.88;5027309;28;20038;-59
2022/01/30 10:54:06;;;;;;;36.13;5.30;;;;;;;7.19;70.54;103093.13;5025283;28;20036;-60
2022/01/30 10:56:31;;;;;;;37.88;4.70;;;;;;;7.22;70.20;103085.84;5025338;28;20029;-59
2022/01/30 10:59:09;;;;;;;34.10;4.40;;;;;;;7.28;69.53;103092.59;5025889;28;20132;-59
2022/01/30 11:01:37;;;;;;;34.95;4.65;;;;;;;7.32;69.36;103086.16;5023498;28;20022;-59
2022/01/30 11:04:02;;;;;;;37.20;4.95;;;;;;;7.33;68.86;103074.66;5026815;28;20036;-59
2022/01/30 11:06:29;;;;;;;28.00;4.57;;;;;;;7.27;68.79;103069.75;5025014;28;20112;-59
2022/01/30 11:09:05;;;;;;;31.15;5.20;;;;;;;7.22;68.16;103067.34;5025333;28;20370;-59
2022/01/30 11:11:36;;;;;;;25.40;4.80;;;;;;;7.18;68.14;103060.56;5022088;28;20022;-59
2022/01/30 11:19:17;;;;;;;30.37;4.60;;;;;;;7.24;68.14;103054.94;5027488;28;20048;-59
2022/01/30 11:21:51;;;;;;;27.87;4.27;;;;;;;7.27;68.00;103056.53;5027098;28;20431;-59
2022/01/30 11:24:19;;;;;;;34.67;4.72;;;;;;;7.33;67.96;103053.50;5028757;28;20040;-60
2022/01/30 11:26:45;;;;;;;33.80;5.03;;;;;;;7.41;67.27;103049.44;5030035;28;20017;-59
2022/01/30 11:29:12;;;;;;;30.65;4.20;;;;;;;7.57;67.81;103040.56;5030314;28;20362;-59
2022/01/30 11:31:38;;;;;;;31.30;4.72;;;;;;;7.68;67.54;103044.19;5028696;28;20029;-59
2022/01/30 11:34:04;;;;;;;38.65;5.03;;;;;;;7.71;67.46;103038.72;5026189;28;20128;-59
2022/01/30 11:36:31;;;;;;;33.03;4.43;;;;;;;7.71;66.85;103035.22;5029832;28;20044;-57
2022/01/30 11:38:57;;;;;;;30.38;4.93;;;;;;;7.65;66.30;103047.03;5027956;28;20021;-59
2022/01/30 11:41:22;;;;;;;32.55;4.80;;;;;;;7.58;65.24;103044.91;5030955;28;20053;-60
2022/01/30 11:44:19;;;;;;;29.05;5.30;;;;;;;7.56;64.25;103039.72;5030412;28;20052;-59
2022/01/30 11:47:04;;;;;;;32.17;5.13;;;;;;;7.57;64.17;103040.56;5030022;28;20523;-60
2022/01/30 11:49:46;;;;;;;32.33;4.80;;;;;;;7.63;64.51;103041.00;5028183;28;20068;-59
2022/01/30 11:52:13;;;;;;;37.95;4.93;;;;;;;7.75;64.97;103040.22;5026568;28;20076;-59
2022/01/30 11:54:47;;;;;;;29.42;4.43;;;;;;;7.83;65.34;103039.75;5028923;28;20020;-59
2022/01/30 11:57:21;;;;;;;32.15;4.88;;;;;;;7.91;65.63;103031.31;5027170;28;20220;-59
2022/01/30 11:59:48;;;;;;;31.75;5.13;;;;;;;7.90;65.93;103040.19;5029505;28;20049;-60
2022/01/30 12:02:27;;;;;;;25.85;4.72;;;;;;;7.96;65.87;103034.50;5030414;28;20567;-59
2022/01/30 12:04:56;;;;;;;28.13;4.90;;;;;;;8.05;65.63;103036.53;5029980;28;20456;-59
2022/01/30 12:07:50;;;;;;;31.52;4.57;;;;;;;8.09;65.90;103038.03;5027818;28;20022;-58
2022/01/30 12:10:15;;;;;;;35.92;5.78;;;;;;;8.11;65.90;103046.75;5025225;28;20048;-59
2022/01/30 12:13:01;;;;;;;32.78;5.15;;;;;;;8.11;65.09;103043.25;5030194;28;20037;-58
2022/01/30 12:15:37;;;;;;;29.45;4.50;;;;;;;8.13;64.77;103036.06;5027818;28;20031;-59
2022/01/30 12:18:04;;;;;;;30.52;5.05;;;;;;;8.18;63.96;103037.44;5023612;28;20025;-59
2022/01/30 12:20:51;;;;;;;29.08;4.65;;;;;;;8.31;63.52;103042.75;5028949;28;20427;-59
2022/01/30 12:23:31;;;;;;;28.52;4.32;;;;;;;8.40;62.46;103028.13;5024398;28;20135;-59
2022/01/30 12:26:04;;;;;;;25.95;3.80;;;;;;;8.43;61.85;103035.84;5029912;28;20032;-59
2022/01/30 12:28:42;;;;;;;33.80;4.50;;;;;;;8.48;61.49;103037.22;5026168;28;20021;-59
2022/01/30 12:31:32;;;;;;;33.85;4.65;;;;;;;8.60;62.65;103039.03;5028138;28;20029;-62
2022/01/30 12:34:15;;;;;;;33.78;4.70;;;;;;;8.57;62.10;103022.50;5029570;28;20564;-65